createdAt,value
2019-04-30T00:00:21.174Z,6.34
2019-04-30T00:01:21.207Z,6.39
2019-04-30T00:02:21.236Z,6.31
2019-04-30T00:03:21.272Z,6.25
2019-04-30T00:04:21.295Z,6.26
2019-04-30T00:05:21.324Z,6.12
2019-04-30T00:06:21.351Z,6.12
2019-04-30T00:07:21.382Z,6.17
2019-04-30T00:08:21.425Z,6.17
2019-04-30T00:09:21.443Z,6.01
2019-04-30T00:10:21.471Z,6.01
2019-04-30T00:11:21.502Z,5.98
2019-04-30T00:12:21.528Z,5.90
2019-04-30T00:13:21.556Z,5.87
2019-04-30T00:14:21.588Z,5.73
2019-04-30T00:15:21.615Z,5.56
2019-04-30T00:16:21.643Z,5.59
2019-04-30T00:17:21.673Z,5.47
2019-04-30T00:18:21.704Z,5.36
2019-04-30T00:19:21.731Z,5.23
2019-04-30T00:20:21.763Z,5.23
2019-04-30T00:21:21.787Z,5.18
2019-04-30T00:22:33.068Z,5.22
2019-04-30T00:23:22.715Z,5.23
2019-04-30T00:24:21.876Z,5.34
2019-04-30T00:25:26.909Z,5.44
2019-04-30T00:26:21.935Z,5.47
2019-04-30T00:27:26.370Z,5.58
2019-04-30T00:28:21.990Z,5.58
2019-04-30T00:29:26.963Z,5.44
2019-04-30T00:30:22.049Z,5.49
2019-04-30T00:31:23.852Z,5.61
2019-04-30T00:32:22.109Z,5.73
2019-04-30T00:33:25.076Z,5.84
2019-04-30T00:34:22.169Z,5.80
2019-04-30T00:35:22.193Z,5.77
2019-04-30T00:36:22.224Z,5.72
2019-04-30T00:37:22.248Z,5.58
2019-04-30T00:38:22.280Z,5.59
2019-04-30T00:39:22.312Z,5.47
2019-04-30T00:40:26.761Z,5.52
2019-04-30T00:41:22.363Z,5.43
2019-04-30T00:42:24.470Z,5.36
2019-04-30T00:43:22.420Z,5.16
2019-04-30T00:44:24.786Z,5.04
2019-04-30T00:45:22.479Z,4.92
2019-04-30T00:46:25.493Z,4.89
2019-04-30T00:47:22.536Z,4.75
2019-04-30T00:48:27.860Z,4.78
2019-04-30T00:49:24.171Z,4.70
2019-04-30T00:50:22.623Z,4.83
2019-04-30T00:51:22.650Z,4.75
2019-04-30T00:52:22.679Z,4.75
2019-04-30T00:53:22.713Z,5.07
2019-04-30T00:54:27.996Z,5.38
2019-04-30T00:55:22.768Z,5.58
2019-04-30T00:56:24.676Z,5.76
2019-04-30T00:57:22.819Z,5.90
2019-04-30T00:58:28.992Z,5.88
2019-04-30T00:59:22.877Z,5.88
2019-04-30T01:00:28.088Z,5.88
2019-04-30T01:01:22.935Z,5.90
2019-04-30T01:02:30.445Z,5.98
2019-04-30T01:03:22.990Z,6.15
2019-04-30T01:04:24.480Z,6.34
2019-04-30T01:05:23.050Z,6.31
2019-04-30T01:06:24.665Z,6.36
2019-04-30T01:07:23.107Z,6.36
2019-04-30T01:08:27.229Z,6.56
2019-04-30T01:09:23.161Z,6.53
2019-04-30T01:10:26.786Z,6.59
2019-04-30T01:11:23.219Z,6.56
2019-04-30T01:12:27.728Z,6.54
2019-04-30T01:13:23.276Z,6.36
2019-04-30T01:14:28.203Z,6.49
2019-04-30T01:15:23.334Z,6.44
2019-04-30T01:16:23.597Z,6.41
2019-04-30T01:17:23.389Z,6.43
2019-04-30T01:18:27.628Z,6.41
2019-04-30T01:19:29.982Z,6.46
2019-04-30T01:20:24.041Z,6.54
2019-04-30T01:21:23.504Z,6.65
2019-04-30T01:22:28.148Z,6.52
2019-04-30T01:23:23.564Z,6.54
2019-04-30T01:24:27.793Z,6.41
2019-04-30T01:25:23.622Z,6.32
2019-04-30T01:26:27.739Z,6.38
2019-04-30T01:27:23.677Z,6.39
2019-04-30T01:28:24.409Z,6.50
2019-04-30T01:29:23.737Z,6.56
2019-04-30T01:30:23.766Z,6.36
2019-04-30T01:31:23.794Z,6.29
2019-04-30T01:32:23.825Z,6.41
2019-04-30T01:33:28.421Z,6.32
2019-04-30T01:34:23.883Z,6.20
2019-04-30T01:35:28.280Z,6.36
2019-04-30T01:36:23.937Z,6.35
2019-04-30T01:37:28.330Z,6.38
2019-04-30T01:38:23.995Z,6.56
2019-04-30T01:39:28.434Z,6.53
2019-04-30T01:40:24.052Z,6.54
2019-04-30T01:41:27.350Z,6.62
2019-04-30T01:42:24.111Z,6.72
2019-04-30T01:43:31.591Z,6.74
2019-04-30T01:44:24.167Z,6.72
2019-04-30T01:45:28.182Z,6.74
2019-04-30T01:46:24.226Z,6.74
2019-04-30T01:47:27.690Z,6.74
2019-04-30T01:48:24.287Z,6.89
2019-04-30T01:49:26.656Z,6.86
2019-04-30T01:50:24.342Z,6.89
2019-04-30T01:51:24.370Z,6.85
2019-04-30T01:52:24.397Z,6.82
2019-04-30T01:53:24.426Z,6.85
2019-04-30T01:54:24.524Z,6.80
2019-04-30T01:55:24.486Z,6.59
2019-04-30T01:56:24.514Z,6.54
2019-04-30T01:57:24.547Z,6.39
2019-04-30T01:58:24.571Z,6.36
2019-04-30T01:59:24.600Z,6.25
2019-04-30T02:00:24.629Z,6.17
2019-04-30T02:01:24.662Z,6.07
2019-04-30T02:02:24.687Z,6.07
2019-04-30T02:03:24.716Z,5.95
2019-04-30T02:04:24.745Z,5.87
2019-04-30T02:05:24.776Z,5.61
2019-04-30T02:06:24.809Z,5.43
2019-04-30T02:07:24.831Z,5.23
2019-04-30T02:08:24.861Z,5.02
2019-04-30T02:09:24.895Z,4.79
2019-04-30T02:10:24.918Z,4.61
2019-04-30T02:11:24.948Z,4.50
2019-04-30T02:12:24.979Z,4.39
2019-04-30T02:13:25.004Z,4.24
2019-04-30T02:14:25.034Z,4.25
2019-04-30T02:15:25.062Z,4.13
2019-04-30T02:16:25.093Z,4.18
2019-04-30T02:17:25.120Z,4.00
2019-04-30T02:18:25.148Z,3.86
2019-04-30T02:19:25.180Z,3.85
2019-04-30T02:20:25.205Z,3.74
2019-04-30T02:21:25.234Z,3.53
2019-04-30T02:22:25.265Z,3.58
2019-04-30T02:23:25.291Z,3.41
2019-04-30T02:24:25.317Z,3.40
2019-04-30T02:25:25.348Z,3.37
2019-04-30T02:26:25.379Z,3.27
2019-04-30T02:27:25.403Z,3.21
2019-04-30T02:28:25.430Z,3.19
2019-04-30T02:29:25.460Z,3.19
2019-04-30T02:30:25.495Z,3.21
2019-04-30T02:31:25.517Z,3.00
2019-04-30T02:32:25.544Z,3.09
2019-04-30T02:33:25.573Z,3.13
2019-04-30T02:34:25.601Z,3.29
2019-04-30T02:35:25.631Z,3.19
2019-04-30T02:36:25.660Z,3.24
2019-04-30T02:37:25.683Z,3.18
2019-04-30T02:38:25.717Z,3.21
2019-04-30T02:39:25.740Z,3.06
2019-04-30T02:40:25.768Z,2.93
2019-04-30T02:41:25.801Z,3.06
2019-04-30T02:42:25.822Z,2.95
2019-04-30T02:43:25.851Z,2.98
2019-04-30T02:44:25.879Z,2.98
2019-04-30T02:45:25.907Z,2.82
2019-04-30T02:46:25.933Z,2.75
2019-04-30T02:47:25.962Z,2.58
2019-04-30T02:48:25.991Z,2.37
2019-04-30T02:49:26.018Z,2.33
2019-04-30T02:50:26.045Z,2.19
2019-04-30T02:51:26.070Z,2.12
2019-04-30T02:52:26.098Z,2.03
2019-04-30T02:53:26.127Z,2.05
2019-04-30T02:54:26.156Z,2.00
2019-04-30T02:55:26.181Z,1.89
2019-04-30T02:56:27.107Z,1.89
2019-04-30T02:57:26.235Z,1.92
2019-04-30T02:58:26.263Z,1.93
2019-04-30T02:59:26.292Z,1.86
2019-04-30T03:00:26.320Z,1.84
2019-04-30T03:01:26.348Z,1.84
2019-04-30T03:02:28.559Z,1.79
2019-04-30T03:03:26.398Z,1.76
2019-04-30T03:04:26.430Z,1.75
2019-04-30T03:05:26.456Z,1.89
2019-04-30T03:06:26.481Z,1.88
2019-04-30T03:07:26.507Z,2.00
2019-04-30T03:08:29.554Z,1.93
2019-04-30T03:09:26.560Z,1.84
2019-04-30T03:10:26.588Z,1.78
2019-04-30T03:11:26.614Z,1.70
2019-04-30T03:12:26.643Z,1.67
2019-04-30T03:13:29.708Z,1.63
2019-04-30T03:14:26.695Z,1.75
2019-04-30T03:15:29.602Z,1.82
2019-04-30T03:16:26.752Z,1.89
2019-04-30T03:17:29.282Z,1.97
2019-04-30T03:18:26.804Z,2.05
2019-04-30T03:19:29.327Z,2.04
2019-04-30T03:20:32.668Z,2.19
2019-04-30T03:21:29.038Z,2.36
2019-04-30T03:22:26.914Z,2.47
2019-04-30T03:23:29.305Z,2.79
2019-04-30T03:24:29.417Z,2.98
2019-04-30T03:25:29.807Z,3.30
2019-04-30T03:26:29.617Z,3.43
2019-04-30T03:27:27.053Z,3.30
2019-04-30T03:28:29.896Z,3.19
2019-04-30T03:29:27.101Z,3.11
2019-04-30T03:30:31.539Z,2.98
2019-04-30T03:31:27.156Z,2.94
2019-04-30T03:32:35.856Z,2.80
2019-04-30T03:33:32.181Z,2.76
2019-04-30T03:34:31.826Z,2.46
2019-04-30T03:35:31.753Z,2.54
2019-04-30T03:36:27.291Z,2.73
2019-04-30T03:37:29.406Z,2.79
2019-04-30T03:38:30.036Z,2.91
2019-04-30T03:39:29.726Z,3.21
2019-04-30T03:40:30.053Z,3.36
2019-04-30T03:41:33.096Z,3.66
2019-04-30T03:42:29.428Z,4.00
2019-04-30T03:43:30.003Z,4.38
2019-04-30T03:44:31.596Z,4.46
2019-04-30T03:45:30.020Z,4.79
2019-04-30T03:46:29.817Z,5.15
2019-04-30T03:47:29.932Z,5.46
2019-04-30T03:48:29.348Z,5.70
2019-04-30T03:49:29.784Z,5.91
2019-04-30T03:50:32.841Z,6.02
2019-04-30T03:51:29.867Z,5.99
2019-04-30T03:52:29.155Z,5.84
2019-04-30T03:53:29.759Z,5.77
2019-04-30T03:54:29.245Z,5.61
2019-04-30T03:55:29.434Z,5.54
2019-04-30T03:56:29.898Z,5.72
2019-04-30T03:57:30.186Z,5.81
2019-04-30T03:58:29.266Z,6.15
2019-04-30T03:59:30.077Z,6.52
2019-04-30T04:00:29.991Z,6.70
2019-04-30T04:01:29.487Z,7.04
2019-04-30T04:02:30.059Z,7.33
2019-04-30T04:03:29.712Z,7.62
2019-04-30T04:04:30.775Z,7.81
2019-04-30T04:05:29.862Z,7.99
2019-04-30T04:06:29.273Z,8.20
2019-04-30T04:07:29.944Z,8.36
2019-04-30T04:08:29.328Z,8.42
2019-04-30T04:09:29.991Z,8.54
2019-04-30T04:10:29.778Z,8.56
2019-04-30T04:11:29.733Z,8.57
2019-04-30T04:12:30.460Z,8.75
2019-04-30T04:13:30.065Z,8.74
2019-04-30T04:14:29.619Z,8.79
2019-04-30T04:15:29.921Z,8.71
2019-04-30T04:16:31.783Z,8.75
2019-04-30T04:17:31.072Z,8.82
2019-04-30T04:18:30.210Z,8.86
2019-04-30T04:19:29.264Z,8.99
2019-04-30T04:20:29.843Z,9.08
2019-04-30T04:21:29.970Z,9.11
2019-04-30T04:22:30.706Z,9.08
2019-04-30T04:23:32.319Z,9.11
2019-04-30T04:24:30.237Z,9.26
2019-04-30T04:25:29.924Z,9.47
2019-04-30T04:26:29.886Z,9.45
2019-04-30T04:27:30.297Z,9.66
2019-04-30T04:28:29.978Z,9.70
2019-04-30T04:29:29.848Z,9.82
2019-04-30T04:30:29.816Z,9.70
2019-04-30T04:31:29.883Z,9.81
2019-04-30T04:32:30.839Z,9.64
2019-04-30T04:33:29.617Z,9.26
2019-04-30T04:34:30.238Z,9.27
2019-04-30T04:35:29.971Z,9.39
2019-04-30T04:36:30.247Z,9.47
2019-04-30T04:37:30.194Z,9.67
2019-04-30T04:38:30.400Z,9.81
2019-04-30T04:39:29.766Z,9.97
2019-04-30T04:40:30.275Z,9.91
2019-04-30T04:41:29.631Z,10.21
2019-04-30T04:42:32.711Z,10.25
2019-04-30T04:43:30.044Z,10.62
2019-04-30T04:44:29.527Z,11.01
2019-04-30T04:45:30.555Z,11.43
2019-04-30T04:46:30.810Z,11.67
2019-04-30T04:47:30.946Z,11.83
2019-04-30T04:48:29.922Z,11.96
2019-04-30T04:49:30.528Z,12.15
2019-04-30T04:50:30.363Z,11.77
2019-04-30T04:51:38.074Z,12.32
2019-04-30T04:52:31.547Z,12.54
2019-04-30T04:53:30.360Z,12.62
2019-04-30T04:54:30.093Z,12.75
2019-04-30T04:55:30.119Z,12.33
2019-04-30T04:56:30.485Z,12.63
2019-04-30T04:57:30.360Z,12.62
2019-04-30T04:58:30.437Z,12.68
2019-04-30T04:59:29.843Z,13.02
2019-04-30T05:00:29.836Z,12.98
2019-04-30T05:01:29.867Z,13.21
2019-04-30T05:02:32.763Z,13.52
2019-04-30T05:03:30.001Z,13.20
2019-04-30T05:04:29.986Z,12.81
2019-04-30T05:05:30.067Z,12.63
2019-04-30T05:06:30.051Z,12.36
2019-04-30T05:07:30.080Z,12.68
2019-04-30T05:08:30.115Z,12.86
2019-04-30T05:09:30.147Z,12.98
2019-04-30T05:10:30.185Z,12.75
2019-04-30T05:11:31.675Z,13.27
2019-04-30T05:12:30.261Z,13.55
2019-04-30T05:13:30.294Z,13.17
2019-04-30T05:14:30.329Z,12.62
2019-04-30T05:15:30.366Z,12.98
2019-04-30T05:16:30.405Z,13.31
2019-04-30T05:17:32.105Z,13.82
2019-04-30T05:18:30.477Z,14.41
2019-04-30T05:19:30.512Z,15.23
2019-04-30T05:20:30.550Z,15.05
2019-04-30T05:21:41.741Z,15.73
2019-04-30T05:22:30.628Z,14.89
2019-04-30T05:23:30.665Z,14.22
2019-04-30T05:24:30.697Z,13.78
2019-04-30T05:25:30.738Z,13.60
2019-04-30T05:26:30.777Z,14.00
2019-04-30T05:27:30.814Z,14.20
2019-04-30T05:28:30.848Z,14.15
2019-04-30T05:29:30.887Z,13.91
2019-04-30T05:30:30.930Z,14.49
2019-04-30T05:31:30.963Z,14.59
2019-04-30T05:32:31.002Z,15.04
2019-04-30T05:33:31.042Z,14.85
2019-04-30T05:34:31.078Z,15.60
2019-04-30T05:35:31.287Z,15.90
2019-04-30T05:36:31.157Z,15.19
2019-04-30T05:37:31.194Z,14.62
2019-04-30T05:38:31.455Z,14.96
2019-04-30T05:39:31.272Z,15.35
2019-04-30T05:40:31.310Z,16.36
2019-04-30T05:41:31.350Z,16.00
2019-04-30T05:42:31.392Z,15.99
2019-04-30T05:43:31.431Z,16.54
2019-04-30T05:44:31.468Z,17.13
2019-04-30T05:45:33.636Z,17.07
2019-04-30T05:46:31.552Z,16.50
2019-04-30T05:47:31.588Z,16.91
2019-04-30T05:48:31.631Z,17.07
2019-04-30T05:49:31.669Z,17.59
2019-04-30T05:50:31.711Z,17.14
2019-04-30T05:51:31.749Z,16.49
2019-04-30T05:52:31.788Z,16.43
2019-04-30T05:53:31.829Z,15.69
2019-04-30T05:54:31.870Z,16.06
2019-04-30T05:55:31.912Z,15.91
2019-04-30T05:56:31.955Z,15.85
2019-04-30T05:57:31.995Z,16.12
2019-04-30T05:58:32.037Z,16.69
2019-04-30T05:59:32.079Z,17.41
2019-04-30T06:00:32.120Z,17.16
2019-04-30T06:01:32.158Z,17.22
2019-04-30T06:02:34.041Z,17.78
2019-04-30T06:03:33.287Z,17.80
2019-04-30T06:04:32.280Z,17.20
2019-04-30T06:05:32.323Z,17.53
2019-04-30T06:06:33.681Z,16.36
2019-04-30T06:07:32.407Z,16.94
2019-04-30T06:08:32.449Z,17.53
2019-04-30T06:09:34.008Z,17.66
2019-04-30T06:10:32.531Z,17.82
2019-04-30T06:11:32.574Z,17.24
2019-04-30T06:12:32.615Z,16.80
2019-04-30T06:13:32.657Z,16.89
2019-04-30T06:14:32.700Z,16.98
2019-04-30T06:15:32.744Z,17.14
2019-04-30T06:16:32.783Z,17.78
2019-04-30T06:17:32.827Z,18.15
2019-04-30T06:18:32.869Z,17.60
2019-04-30T06:19:32.914Z,17.20
2019-04-30T06:20:32.954Z,15.92
2019-04-30T06:21:32.994Z,15.78
2019-04-30T06:22:33.038Z,15.30
2019-04-30T06:23:33.081Z,14.61
2019-04-30T06:24:33.123Z,14.77
2019-04-30T06:25:45.738Z,14.85
2019-04-30T06:26:33.207Z,14.89
2019-04-30T06:27:33.248Z,14.63
2019-04-30T06:28:33.289Z,15.33
2019-04-30T06:29:33.334Z,15.87
2019-04-30T06:30:33.375Z,15.39
2019-04-30T06:31:37.397Z,15.08
2019-04-30T06:32:33.458Z,15.51
2019-04-30T06:33:33.499Z,15.75
2019-04-30T06:34:33.543Z,15.72
2019-04-30T06:35:33.582Z,15.88
2019-04-30T06:36:33.624Z,16.95
2019-04-30T06:37:33.666Z,16.44
2019-04-30T06:38:33.711Z,16.46
2019-04-30T06:39:33.751Z,17.13
2019-04-30T06:40:33.790Z,17.24
2019-04-30T06:41:33.833Z,17.16
2019-04-30T06:42:33.875Z,15.94
2019-04-30T06:43:33.919Z,16.40
2019-04-30T06:44:38.279Z,16.62
2019-04-30T06:45:34.003Z,17.02
2019-04-30T06:46:34.046Z,16.86
2019-04-30T06:47:34.087Z,15.76
2019-04-30T06:48:34.171Z,15.85
2019-04-30T06:49:34.172Z,16.91
2019-04-30T06:50:34.216Z,16.43
2019-04-30T06:51:34.268Z,15.43
2019-04-30T06:52:34.300Z,15.00
2019-04-30T06:53:34.342Z,14.56
2019-04-30T06:54:34.385Z,14.59
2019-04-30T06:55:34.430Z,15.19
2019-04-30T06:56:34.469Z,15.59
2019-04-30T06:57:34.511Z,16.28
2019-04-30T06:58:34.555Z,15.51
2019-04-30T06:59:34.596Z,15.17
2019-04-30T07:00:35.577Z,15.29
2019-04-30T07:01:34.680Z,15.51
2019-04-30T07:02:34.724Z,15.70
2019-04-30T07:03:34.762Z,15.62
2019-04-30T07:04:34.805Z,15.81
2019-04-30T07:05:34.849Z,14.79
2019-04-30T07:06:37.100Z,15.35
2019-04-30T07:07:39.007Z,16.05
2019-04-30T07:08:39.651Z,16.74
2019-04-30T07:09:49.545Z,16.57
2019-04-30T07:10:35.061Z,17.27
2019-04-30T07:11:35.098Z,17.95
2019-04-30T07:12:35.140Z,18.67
2019-04-30T07:13:35.182Z,19.59
2019-04-30T07:14:35.225Z,19.16
2019-04-30T07:15:35.268Z,19.04
2019-04-30T07:16:35.314Z,19.11
2019-04-30T07:17:35.354Z,18.00
2019-04-30T07:18:35.459Z,18.05
2019-04-30T07:19:51.088Z,18.28
2019-04-30T07:20:35.486Z,18.06
2019-04-30T07:21:36.416Z,16.97
2019-04-30T07:22:41.061Z,16.51
2019-04-30T07:23:35.621Z,15.76
2019-04-30T07:24:35.661Z,15.76
2019-04-30T07:25:35.706Z,15.91
2019-04-30T07:26:35.750Z,16.36
2019-04-30T07:27:35.791Z,16.89
2019-04-30T07:28:44.628Z,17.49
2019-04-30T07:29:35.875Z,16.51
2019-04-30T07:30:35.980Z,16.36
2019-04-30T07:31:35.963Z,16.24
2019-04-30T07:32:36.005Z,16.37
2019-04-30T07:33:36.050Z,15.29
2019-04-30T07:34:37.157Z,15.83
2019-04-30T07:35:36.138Z,15.60
2019-04-30T07:37:36.226Z,15.85
2019-04-30T07:38:45.670Z,16.00
2019-04-30T07:39:36.309Z,16.62
2019-04-30T07:40:36.353Z,17.32
2019-04-30T07:41:36.396Z,17.53
2019-04-30T07:42:42.610Z,17.65
2019-04-30T07:43:39.052Z,16.95
2019-04-30T07:44:36.825Z,16.65
2019-04-30T07:45:36.573Z,16.41
2019-04-30T07:46:41.168Z,15.88
2019-04-30T07:47:36.660Z,15.76
2019-04-30T07:48:36.701Z,16.08
2019-04-30T07:49:49.869Z,15.80
2019-04-30T07:50:37.217Z,15.02
2019-04-30T07:51:40.268Z,14.55
2019-04-30T07:52:55.431Z,14.77
2019-04-30T07:53:36.915Z,15.02
2019-04-30T07:54:36.955Z,15.33
2019-04-30T07:55:39.103Z,16.29
2019-04-30T07:56:38.773Z,16.39
2019-04-30T07:57:40.143Z,16.32
2019-04-30T07:58:39.095Z,16.24
2019-04-30T07:59:37.171Z,16.47
2019-04-30T08:00:40.079Z,16.84
2019-04-30T08:01:37.256Z,17.80
2019-04-30T08:02:41.547Z,17.98
2019-04-30T08:03:39.533Z,18.15
2019-04-30T08:04:37.385Z,17.79
2019-04-30T08:05:40.003Z,16.98
2019-04-30T08:06:39.530Z,17.52
2019-04-30T08:07:39.166Z,18.13
2019-04-30T08:08:40.557Z,18.76
2019-04-30T08:09:34.987Z,15.69
2019-04-30T08:09:41.880Z,17.14
2019-04-30T08:10:39.384Z,16.92
2019-04-30T08:11:41.872Z,17.78
2019-04-30T08:12:41.886Z,16.59
2019-04-30T08:13:40.515Z,16.31
2019-04-30T08:14:39.092Z,15.36
2019-04-30T08:15:37.878Z,15.18
2019-04-30T08:16:38.629Z,14.74
2019-04-30T08:17:38.914Z,15.65
2019-04-30T08:18:39.224Z,15.84
2019-04-30T08:19:38.490Z,15.75
2019-04-30T08:20:39.284Z,14.56
2019-04-30T08:21:38.771Z,14.94
2019-04-30T08:22:40.862Z,15.43
2019-04-30T08:23:39.718Z,15.22
2019-04-30T08:24:39.122Z,15.67
2019-04-30T08:25:39.098Z,15.87
2019-04-30T08:26:39.778Z,15.88
2019-04-30T08:27:39.300Z,16.02
2019-04-30T08:28:38.774Z,16.24
2019-04-30T08:29:39.515Z,16.97
2019-04-30T08:30:39.183Z,17.47
2019-04-30T08:31:40.626Z,17.90
2019-04-30T08:32:38.741Z,18.36
2019-04-30T08:33:40.225Z,19.41
2019-04-30T08:34:39.344Z,19.87
2019-04-30T08:35:39.755Z,19.97
2019-04-30T08:36:38.804Z,18.89
2019-04-30T08:37:38.849Z,18.73
2019-04-30T08:38:39.484Z,19.39
2019-04-30T08:39:39.723Z,19.99
2019-04-30T08:40:47.226Z,20.29
2019-04-30T08:41:39.297Z,20.19
2019-04-30T08:42:40.408Z,18.61
2019-04-30T08:43:39.491Z,18.86
2019-04-30T08:44:39.680Z,18.94
2019-04-30T08:45:39.212Z,18.60
2019-04-30T08:46:39.262Z,18.42
2019-04-30T08:47:39.411Z,18.03
2019-04-30T08:48:47.826Z,17.80
2019-04-30T08:49:40.511Z,17.60
2019-04-30T08:50:40.016Z,18.39
2019-04-30T08:51:40.053Z,18.31
2019-04-30T08:52:39.599Z,19.01
2019-04-30T08:53:41.071Z,19.38
2019-04-30T08:54:39.631Z,19.74
2019-04-30T08:55:39.677Z,19.99
2019-04-30T08:56:39.733Z,19.41
2019-04-30T08:57:39.771Z,18.55
2019-04-30T08:58:39.818Z,18.18
2019-04-30T08:59:39.865Z,17.35
2019-04-30T09:00:39.917Z,16.86
2019-04-30T09:01:39.962Z,17.07
2019-04-30T09:02:40.008Z,17.54
2019-04-30T09:03:40.055Z,17.86
2019-04-30T09:04:40.105Z,18.33
2019-04-30T09:05:40.155Z,18.24
2019-04-30T09:06:40.338Z,18.03
2019-04-30T09:07:40.241Z,18.58
2019-04-30T09:08:40.360Z,18.78
2019-04-30T09:09:40.335Z,18.96
2019-04-30T09:10:40.384Z,18.61
2019-04-30T09:11:51.719Z,18.55
2019-04-30T09:12:40.476Z,19.22
2019-04-30T09:13:40.522Z,19.07
2019-04-30T09:14:40.747Z,18.34
2019-04-30T09:15:40.615Z,18.23
2019-04-30T09:16:40.689Z,18.60
2019-04-30T09:17:40.711Z,18.91
2019-04-30T09:18:40.754Z,18.37
2019-04-30T09:19:40.801Z,18.96
2019-04-30T09:20:41.035Z,19.35
2019-04-30T09:21:40.897Z,19.96
2019-04-30T09:22:40.945Z,20.34
2019-04-30T09:23:47.979Z,19.94
2019-04-30T09:24:41.037Z,19.38
2019-04-30T09:25:41.084Z,18.68
2019-04-30T09:26:41.136Z,18.34
2019-04-30T09:27:41.184Z,18.76
2019-04-30T09:28:41.232Z,17.73
2019-04-30T09:29:41.275Z,18.21
2019-04-30T09:30:41.324Z,18.28
2019-04-30T09:31:41.374Z,18.21
2019-04-30T09:32:41.421Z,18.58
2019-04-30T09:33:41.467Z,18.61
2019-04-30T09:34:41.515Z,18.71
2019-04-30T09:35:41.565Z,18.57
2019-04-30T09:36:41.606Z,18.74
2019-04-30T09:37:41.864Z,18.19
2019-04-30T09:38:41.706Z,18.46
2019-04-30T09:39:41.752Z,18.61
2019-04-30T09:40:41.883Z,19.12
2019-04-30T09:41:41.849Z,19.55
2019-04-30T09:42:41.894Z,19.81
2019-04-30T09:43:41.943Z,20.19
2019-04-30T09:44:41.990Z,19.64
2019-04-30T09:45:42.044Z,19.55
2019-04-30T09:46:42.088Z,18.88
2019-04-30T09:47:42.195Z,18.39
2019-04-30T09:48:42.185Z,17.53
2019-04-30T09:49:42.227Z,17.31
2019-04-30T09:50:42.344Z,17.49
2019-04-30T09:51:42.527Z,17.46
2019-04-30T09:52:42.820Z,16.44
2019-04-30T09:53:42.418Z,15.92
2019-04-30T09:54:42.554Z,15.73
2019-04-30T09:55:42.513Z,16.74
2019-04-30T09:56:42.556Z,17.22
2019-04-30T09:57:42.606Z,17.17
2019-04-30T09:58:42.650Z,17.49
2019-04-30T09:59:42.703Z,18.02
2019-04-30T10:00:42.745Z,18.61
2019-04-30T10:01:42.788Z,19.04
2019-04-30T10:02:42.836Z,19.15
2019-04-30T10:03:43.306Z,19.17
2019-04-30T10:04:43.451Z,19.08
2019-04-30T10:05:42.977Z,18.78
2019-04-30T10:06:43.024Z,18.66
2019-04-30T10:07:43.069Z,18.68
2019-04-30T10:08:48.433Z,18.48
2019-04-30T10:09:43.161Z,18.15
2019-04-30T10:10:43.207Z,18.03
2019-04-30T10:11:43.252Z,17.50
2019-04-30T10:12:43.307Z,17.13
2019-04-30T10:13:43.346Z,17.44
2019-04-30T10:14:43.394Z,17.59
2019-04-30T10:15:43.436Z,17.84
2019-04-30T10:16:43.482Z,18.26
2019-04-30T10:17:43.534Z,18.92
2019-04-30T10:18:43.576Z,18.49
2019-04-30T10:19:43.623Z,18.64
2019-04-30T10:20:43.671Z,19.01
2019-04-30T10:21:43.731Z,19.16
2019-04-30T10:22:43.764Z,19.56
2019-04-30T10:23:43.806Z,19.34
2019-04-30T10:24:43.853Z,19.35
2019-04-30T10:25:43.903Z,20.17
2019-04-30T10:26:43.945Z,20.46
2019-04-30T10:27:43.995Z,20.73
2019-04-30T10:28:44.072Z,21.14
2019-04-30T10:29:44.092Z,20.55
2019-04-30T10:30:44.135Z,19.53
2019-04-30T10:31:44.186Z,20.26
2019-04-30T10:32:44.229Z,21.07
2019-04-30T10:33:44.280Z,20.17
2019-04-30T10:34:44.323Z,20.07
2019-04-30T10:35:44.377Z,20.59
2019-04-30T10:36:44.440Z,19.74
2019-04-30T10:37:44.467Z,19.45
2019-04-30T10:38:44.519Z,19.53
2019-04-30T10:39:44.599Z,19.81
2019-04-30T10:40:44.623Z,18.61
2019-04-30T10:41:44.660Z,19.42
2019-04-30T10:42:44.709Z,19.22
2019-04-30T10:43:44.757Z,19.11
2019-04-30T10:44:44.803Z,18.70
2019-04-30T10:45:44.852Z,19.05
2019-04-30T10:46:44.903Z,19.47
2019-04-30T10:47:44.948Z,20.21
2019-04-30T10:48:44.997Z,19.19
2019-04-30T10:49:45.044Z,17.56
2019-04-30T10:50:45.094Z,17.39
2019-04-30T10:51:45.141Z,17.14
2019-04-30T10:52:45.190Z,17.05
2019-04-30T10:53:45.238Z,17.41
2019-04-30T10:54:45.286Z,17.63
2019-04-30T10:55:45.333Z,17.75
2019-04-30T10:56:45.382Z,17.32
2019-04-30T10:57:45.427Z,17.04
2019-04-30T10:58:45.483Z,16.34
2019-04-30T10:59:45.519Z,16.76
2019-04-30T11:00:45.575Z,16.32
2019-04-30T11:01:45.616Z,16.16
2019-04-30T11:02:45.659Z,16.72
2019-04-30T11:03:45.709Z,17.09
2019-04-30T11:04:45.755Z,18.00
2019-04-30T11:05:45.798Z,17.63
2019-04-30T11:06:45.850Z,16.98
2019-04-30T11:07:45.889Z,17.38
2019-04-30T11:08:45.935Z,17.41
2019-04-30T11:09:45.980Z,17.30
2019-04-30T11:10:46.024Z,16.87
2019-04-30T11:11:46.072Z,16.84
2019-04-30T11:12:46.114Z,16.77
2019-04-30T11:13:46.160Z,16.24
2019-04-30T11:14:46.204Z,16.25
2019-04-30T11:15:46.248Z,17.07
2019-04-30T11:16:46.559Z,17.90
2019-04-30T11:17:46.554Z,18.34
2019-04-30T11:18:46.658Z,17.95
2019-04-30T11:19:46.643Z,17.69
2019-04-30T11:20:46.686Z,18.16
2019-04-30T11:21:46.665Z,18.89
2019-04-30T11:22:46.663Z,18.64
2019-04-30T11:23:46.796Z,17.42
2019-04-30T11:24:56.588Z,17.22
2019-04-30T11:25:47.491Z,17.01
2019-04-30T11:26:49.544Z,17.05
2019-04-30T11:27:47.325Z,16.58
2019-04-30T11:28:47.056Z,17.02
2019-04-30T11:29:48.898Z,17.28
2019-04-30T11:30:47.181Z,17.20
2019-04-30T11:31:47.225Z,17.75
2019-04-30T11:32:47.254Z,17.86
2019-04-30T11:33:47.351Z,17.94
2019-04-30T11:34:47.100Z,18.37
2019-04-30T11:35:47.149Z,18.70
2019-04-30T11:36:47.190Z,19.01
2019-04-30T11:37:47.234Z,19.34
2019-04-30T11:38:48.776Z,19.66
2019-04-30T11:39:47.329Z,19.59
2019-04-30T11:40:48.594Z,19.04
2019-04-30T11:41:47.418Z,18.39
2019-04-30T11:42:47.465Z,18.67
2019-04-30T11:43:49.518Z,18.64
2019-04-30T11:44:48.793Z,18.92
2019-04-30T11:45:47.609Z,18.71
2019-04-30T11:46:49.461Z,18.57
2019-04-30T11:47:53.361Z,19.45
2019-04-30T11:48:48.975Z,20.18
2019-04-30T11:49:47.792Z,20.00
2019-04-30T11:50:49.706Z,19.56
2019-04-30T11:51:47.885Z,19.37
2019-04-30T11:52:47.931Z,19.07
2019-04-30T11:53:48.976Z,19.23
2019-04-30T11:54:51.425Z,19.45
2019-04-30T11:55:49.184Z,18.89
2019-04-30T11:56:50.317Z,19.32
2019-04-30T11:57:49.514Z,19.78
2019-04-30T11:58:48.905Z,19.87
2019-04-30T11:59:48.263Z,19.52
2019-04-30T12:00:49.453Z,19.67
2019-04-30T12:01:48.359Z,20.15
2019-04-30T12:02:52.639Z,20.29
2019-04-30T12:03:49.695Z,20.56
2019-04-30T12:04:49.438Z,21.07
2019-04-30T12:05:49.215Z,21.15
2019-04-30T12:06:48.598Z,21.19
2019-04-30T12:07:50.660Z,21.15
2019-04-30T12:08:49.194Z,21.32
2019-04-30T12:09:48.742Z,21.13
2019-04-30T12:10:48.791Z,21.35
2019-04-30T12:11:50.653Z,21.45
2019-04-30T12:12:48.887Z,21.99
2019-04-30T12:13:48.936Z,22.34
2019-04-30T12:14:49.461Z,22.56
2019-04-30T12:15:50.189Z,22.26
2019-04-30T12:16:50.703Z,22.01
2019-04-30T12:17:49.132Z,22.16
2019-04-30T12:18:49.179Z,22.40
2019-04-30T12:19:49.228Z,22.41
2019-04-30T12:20:49.276Z,22.89
2019-04-30T12:21:49.325Z,21.85
2019-04-30T12:22:49.466Z,21.62
2019-04-30T12:23:49.425Z,21.63
2019-04-30T12:25:02.027Z,21.43
2019-04-30T12:25:49.523Z,21.32
2019-04-30T12:26:49.573Z,20.89
2019-04-30T12:27:49.621Z,19.85
2019-04-30T12:28:49.669Z,19.37
2019-04-30T12:29:49.718Z,18.70
2019-04-30T12:30:49.770Z,19.17
2019-04-30T12:31:49.814Z,19.57
2019-04-30T12:32:49.866Z,19.47
2019-04-30T12:33:49.923Z,18.23
2019-04-30T12:34:49.963Z,18.70
2019-04-30T12:35:51.359Z,19.47
2019-04-30T12:36:50.061Z,20.29
2019-04-30T12:37:52.384Z,20.88
2019-04-30T12:38:50.151Z,21.17
2019-04-30T12:39:50.205Z,21.20
2019-04-30T12:40:50.247Z,21.44
2019-04-30T12:41:50.292Z,21.40
2019-04-30T12:42:50.342Z,21.80
2019-04-30T12:43:50.389Z,21.38
2019-04-30T12:44:50.436Z,21.72
2019-04-30T12:46:02.275Z,21.92
2019-04-30T12:46:50.533Z,21.74
2019-04-30T12:47:50.583Z,21.44
2019-04-30T12:48:50.631Z,21.41
2019-04-30T12:49:50.678Z,21.11
2019-04-30T12:50:50.726Z,19.74
2019-04-30T12:51:50.776Z,19.15
2019-04-30T12:52:50.822Z,19.59
2019-04-30T12:53:50.882Z,20.17
2019-04-30T12:54:50.919Z,20.30
2019-04-30T12:55:50.967Z,20.52
2019-04-30T12:56:51.016Z,21.07
2019-04-30T12:57:58.891Z,21.03
2019-04-30T12:58:51.111Z,21.56
2019-04-30T12:59:51.161Z,21.48
2019-04-30T13:00:51.211Z,21.92
2019-04-30T13:01:51.260Z,21.05